createdAt,value
2016-12-19T17:23:11.116Z,170
2016-12-19T17:23:25.519Z,170
2016-12-19T17:23:40.047Z,170
2016-12-19T17:23:54.562Z,170
2016-12-19T17:24:08.973Z,170
2016-12-19T17:24:23.316Z,170
2016-12-19T17:24:37.679Z,170
2016-12-19T17:24:52.017Z,175
2016-12-19T17:25:06.397Z,170
2016-12-19T17:25:20.809Z,175
2016-12-19T17:25:35.239Z,170
2016-12-19T17:25:49.629Z,175
2016-12-19T17:26:04.095Z,175
2016-12-19T17:26:19.411Z,175
2016-12-19T17:26:33.881Z,180
2016-12-19T17:26:48.523Z,180
2016-12-19T17:27:03.292Z,180
2016-12-19T17:27:17.855Z,180
2016-12-19T17:27:32.259Z,180
2016-12-19T17:27:46.721Z,180
2016-12-19T17:28:01.146Z,185
2016-12-19T17:28:15.549Z,185
2016-12-19T17:28:29.938Z,185
2016-12-19T17:28:44.342Z,190
2016-12-19T17:28:58.806Z,190
2016-12-19T17:29:13.245Z,190
2016-12-19T17:29:27.682Z,190
2016-12-19T17:29:42.098Z,190
2016-12-19T17:29:56.449Z,195
2016-12-19T17:30:10.807Z,195
2016-12-19T17:30:25.229Z,195
2016-12-19T17:30:39.645Z,195
2016-12-19T17:30:54.189Z,195
2016-12-19T17:31:08.965Z,195
2016-12-19T17:31:23.454Z,195
2016-12-19T17:31:37.955Z,200
2016-12-19T17:31:52.357Z,195
2016-12-19T17:32:06.799Z,200
2016-12-19T17:32:21.275Z,195
2016-12-19T17:32:35.744Z,190
2016-12-19T17:32:50.134Z,190
2016-12-19T17:33:04.563Z,190
2016-12-19T17:33:19.002Z,190
2016-12-19T17:33:33.406Z,190
2016-12-19T17:33:47.815Z,190
2016-12-19T17:34:02.288Z,185
2016-12-19T17:34:16.716Z,185
2016-12-19T17:34:31.187Z,185
2016-12-19T17:34:45.824Z,185
2016-12-19T17:35:00.227Z,180
2016-12-19T17:35:14.793Z,180
2016-12-19T17:35:29.275Z,175
2016-12-19T17:35:43.744Z,175
2016-12-19T17:35:58.196Z,170
2016-12-19T17:36:12.557Z,170
2016-12-19T17:36:27.162Z,170
2016-12-19T17:36:41.627Z,165
2016-12-19T17:36:56.180Z,165
2016-12-19T17:37:10.716Z,160
2016-12-19T17:37:25.218Z,160
2016-12-19T17:37:39.637Z,160
2016-12-19T17:37:54.302Z,155
2016-12-19T17:38:08.805Z,155
2016-12-19T17:38:23.182Z,155
2016-12-19T17:38:37.610Z,155
2016-12-19T17:38:52.080Z,150
2016-12-19T17:39:06.829Z,150
2016-12-19T17:39:21.916Z,150
2016-12-19T17:39:36.873Z,145
2016-12-19T17:39:51.818Z,145
2016-12-19T17:40:06.652Z,145
2016-12-19T17:40:21.675Z,145
2016-12-19T17:40:37.528Z,140
2016-12-19T17:40:52.339Z,140
2016-12-19T17:41:06.748Z,140
2016-12-19T17:41:21.230Z,140
2016-12-19T17:41:35.726Z,140
2016-12-19T17:41:50.112Z,140
2016-12-19T17:42:04.483Z,140
2016-12-19T17:42:19.137Z,135
2016-12-19T17:42:33.660Z,135
2016-12-19T17:42:48.086Z,135
2016-12-19T17:43:02.570Z,135
2016-12-19T17:43:17.018Z,135
2016-12-19T17:43:31.522Z,135
2016-12-19T17:43:45.967Z,135
2016-12-19T17:44:00.490Z,135
2016-12-19T17:44:15.118Z,130
2016-12-19T17:44:29.661Z,130
2016-12-19T17:44:43.985Z,130
2016-12-19T17:44:58.426Z,130
2016-12-19T17:45:12.924Z,130
2016-12-19T17:45:27.342Z,130
2016-12-19T17:45:41.776Z,130
2016-12-19T17:45:56.157Z,130
2016-12-19T17:46:10.618Z,130
2016-12-19T17:46:25.027Z,125
2016-12-19T17:46:39.435Z,125
2016-12-19T17:46:53.814Z,125
2016-12-19T17:47:08.214Z,125
2016-12-19T17:47:22.826Z,125
2016-12-19T17:47:37.219Z,125
2016-12-19T17:47:51.630Z,125
2016-12-19T17:48:06.135Z,120
2016-12-19T17:48:20.483Z,120
2016-12-19T17:48:34.901Z,125
2016-12-19T17:48:49.481Z,125
2016-12-19T17:49:03.954Z,125
2016-12-19T17:49:18.378Z,125
2016-12-19T17:49:32.772Z,125
2016-12-19T17:49:47.225Z,125
2016-12-19T17:50:01.600Z,125
2016-12-19T17:50:16.060Z,125
2016-12-19T17:50:30.434Z,125
2016-12-19T17:50:44.793Z,125
2016-12-19T17:50:59.202Z,120
2016-12-19T17:51:13.608Z,120
2016-12-19T17:51:28.050Z,120
2016-12-19T17:51:42.530Z,120
2016-12-19T17:51:56.896Z,120
2016-12-19T17:52:11.300Z,120
2016-12-19T17:52:25.737Z,120
2016-12-19T17:52:40.137Z,120
2016-12-19T17:52:54.518Z,120
2016-12-19T17:53:08.961Z,115
2016-12-19T17:53:23.549Z,115
2016-12-19T17:53:37.984Z,115
2016-12-19T17:53:52.498Z,115
2016-12-19T17:54:06.895Z,115
2016-12-19T17:54:21.352Z,115
2016-12-19T17:54:35.795Z,115
2016-12-19T17:54:50.202Z,115
2016-12-19T17:55:04.618Z,115
2016-12-19T17:55:18.981Z,115
2016-12-19T17:55:33.439Z,115
2016-12-19T17:55:47.865Z,115
2016-12-19T17:56:02.287Z,115
2016-12-19T17:56:16.693Z,115
2016-12-19T17:56:31.256Z,115
2016-12-19T17:56:45.752Z,115
2016-12-19T17:57:00.195Z,115
2016-12-19T17:57:14.546Z,115
2016-12-19T17:57:29.167Z,115
2016-12-19T17:57:43.570Z,115
2016-12-19T17:57:57.955Z,115
2016-12-19T17:58:12.370Z,115
2016-12-19T17:58:26.832Z,115
2016-12-19T17:58:41.254Z,115
2016-12-19T17:58:55.612Z,115
2016-12-19T17:59:10.050Z,115
2016-12-19T17:59:24.503Z,115
2016-12-19T17:59:39.067Z,115
2016-12-19T17:59:53.553Z,115
2016-12-19T18:00:08.041Z,120
2016-12-19T18:00:22.510Z,120
2016-12-19T18:00:37.014Z,120
2016-12-19T18:00:51.481Z,120
2016-12-19T18:01:05.937Z,120
2016-12-19T18:01:20.362Z,120
2016-12-19T18:01:34.832Z,125
2016-12-19T18:01:49.395Z,125
2016-12-19T18:02:03.806Z,125
2016-12-19T18:02:18.214Z,125
2016-12-19T18:02:32.708Z,125
2016-12-19T18:02:47.011Z,125
2016-12-19T18:03:01.459Z,125
2016-12-19T18:03:16.005Z,125
2016-12-19T18:03:30.415Z,125
2016-12-19T18:03:45.037Z,125
2016-12-19T18:03:59.581Z,125
2016-12-19T18:04:14.091Z,125
2016-12-19T18:04:28.819Z,125
2016-12-19T18:04:43.823Z,125
2016-12-19T18:05:01.028Z,125
2016-12-19T18:05:16.909Z,125
2016-12-19T18:05:34.351Z,125
2016-12-19T18:05:50.616Z,125
2016-12-19T18:06:06.692Z,125
2016-12-19T18:06:22.443Z,125
2016-12-19T18:06:38.208Z,125
2016-12-19T18:06:54.123Z,125
2016-12-19T18:07:10.013Z,125
2016-12-19T18:07:25.648Z,125
2016-12-19T18:07:41.234Z,125
2016-12-19T18:07:56.861Z,125
2016-12-19T18:08:12.462Z,125
2016-12-19T18:08:28.119Z,125
2016-12-19T18:08:43.653Z,130
2016-12-19T18:08:59.066Z,130
2016-12-19T18:09:14.205Z,130
2016-12-19T18:09:29.004Z,130
2016-12-19T18:09:43.974Z,130
2016-12-19T18:09:58.433Z,130
2016-12-19T18:10:12.945Z,130
2016-12-19T18:10:27.402Z,130
2016-12-19T18:10:41.881Z,130
2016-12-19T18:10:56.348Z,130
2016-12-19T18:11:10.730Z,130
2016-12-19T18:11:25.092Z,130
2016-12-19T18:11:39.619Z,130
2016-12-19T18:11:54.109Z,130
2016-12-19T18:12:08.657Z,130
2016-12-19T18:12:23.052Z,130
2016-12-19T18:12:37.445Z,130
2016-12-19T18:12:51.958Z,130
2016-12-19T18:13:06.480Z,130
2016-12-19T18:13:20.902Z,125
2016-12-19T18:13:35.326Z,125
2016-12-19T18:13:49.853Z,125
2016-12-19T18:14:04.355Z,120
2016-12-19T18:14:18.805Z,120
2016-12-19T18:14:33.215Z,120
2016-12-19T18:14:47.883Z,115
2016-12-19T18:15:02.373Z,115
2016-12-19T18:15:16.882Z,115
2016-12-19T18:15:31.270Z,110
2016-12-19T18:15:45.751Z,110
2016-12-19T18:16:00.344Z,110
2016-12-19T18:16:14.758Z,110
2016-12-19T18:16:29.156Z,105
2016-12-19T18:16:43.895Z,105
2016-12-19T18:16:58.611Z,105
2016-12-19T18:17:13.068Z,105
2016-12-19T18:17:27.519Z,105
2016-12-19T18:17:41.968Z,105
2016-12-19T18:17:56.448Z,105
2016-12-19T18:18:11.026Z,105
2016-12-19T18:18:25.523Z,105
2016-12-19T18:18:40.104Z,105
2016-12-19T18:18:54.591Z,105
2016-12-19T18:19:08.995Z,105
2016-12-19T18:19:23.591Z,105
2016-12-19T18:19:38.014Z,100
2016-12-19T18:19:52.388Z,100
2016-12-19T18:20:06.980Z,100
2016-12-19T18:20:21.540Z,100
2016-12-19T18:20:36.028Z,100
2016-12-19T18:20:50.515Z,100
2016-12-19T18:21:04.972Z,100
2016-12-19T18:21:19.412Z,100
2016-12-19T18:21:33.801Z,100
2016-12-19T18:21:48.198Z,100
2016-12-19T18:22:02.588Z,100
2016-12-19T18:22:17.225Z,100
2016-12-19T18:22:31.604Z,100
2016-12-19T18:22:46.013Z,100
2016-12-19T18:23:00.463Z,100
2016-12-19T18:23:14.993Z,100
2016-12-19T18:23:29.759Z,100
2016-12-19T18:23:44.539Z,95
2016-12-19T18:23:58.926Z,95
2016-12-19T18:24:13.450Z,95
2016-12-19T18:24:27.902Z,95
2016-12-19T18:24:42.310Z,95
2016-12-19T18:24:56.739Z,90
2016-12-19T18:25:11.154Z,90
2016-12-19T18:25:25.592Z,90
2016-12-19T18:25:40.123Z,90
2016-12-19T18:25:54.663Z,90
2016-12-19T18:26:09.114Z,85
2016-12-19T18:26:23.706Z,85
2016-12-19T18:26:38.261Z,85
2016-12-19T18:26:52.604Z,85
2016-12-19T18:27:07.058Z,85
2016-12-19T18:27:21.450Z,85
2016-12-19T18:27:35.882Z,80
2016-12-19T18:27:50.262Z,80
2016-12-19T18:28:04.718Z,80
2016-12-19T18:28:19.266Z,80
2016-12-19T18:28:33.641Z,80
2016-12-19T18:28:48.111Z,80
2016-12-19T18:29:02.504Z,80
2016-12-19T18:29:16.946Z,80
2016-12-19T18:29:31.428Z,75
2016-12-19T18:29:45.904Z,75
2016-12-19T18:30:00.376Z,75
2016-12-19T18:30:14.937Z,75
2016-12-19T18:30:29.341Z,75
2016-12-19T18:30:43.744Z,75
2016-12-19T18:30:58.187Z,75
2016-12-19T18:31:12.628Z,75
2016-12-19T18:31:27.118Z,75
2016-12-19T18:31:41.580Z,75
2016-12-19T18:31:56.096Z,75
2016-12-19T18:32:10.555Z,80
2016-12-19T18:32:24.935Z,80
2016-12-19T18:32:39.427Z,80
2016-12-19T18:32:53.980Z,80
2016-12-19T18:33:08.383Z,80
2016-12-19T18:33:23.067Z,80
2016-12-19T18:33:37.545Z,80
2016-12-19T18:33:52.128Z,80
2016-12-19T18:34:06.619Z,80
2016-12-19T18:34:21.022Z,80
2016-12-19T18:34:35.474Z,80
2016-12-19T18:34:49.870Z,80
2016-12-19T18:35:04.289Z,80
2016-12-19T18:35:18.706Z,80
2016-12-19T18:35:33.187Z,80
2016-12-19T18:35:47.674Z,80
2016-12-19T18:36:02.124Z,80
2016-12-19T18:36:16.645Z,80
2016-12-19T18:36:31.061Z,80
2016-12-19T18:36:45.529Z,80
2016-12-19T18:36:59.935Z,80
2016-12-19T18:37:14.380Z,80
2016-12-19T18:37:28.887Z,80
2016-12-19T18:37:43.376Z,80
2016-12-19T18:37:57.831Z,80
2016-12-19T18:38:12.196Z,80
2016-12-19T18:38:26.756Z,80
2016-12-19T18:38:41.431Z,80
2016-12-19T18:38:55.865Z,80
2016-12-19T18:39:10.305Z,80
2016-12-19T18:39:24.905Z,80
2016-12-19T18:39:39.387Z,75
2016-12-19T18:39:53.792Z,75
2016-12-19T18:40:08.187Z,75
2016-12-19T18:40:22.656Z,75
2016-12-19T18:40:37.027Z,75
2016-12-19T18:40:51.410Z,75
2016-12-19T18:41:05.804Z,75
2016-12-19T18:41:20.192Z,70
2016-12-19T18:41:34.707Z,70
2016-12-19T18:41:49.155Z,70
2016-12-19T18:42:03.707Z,70
2016-12-19T18:42:18.163Z,70
2016-12-19T18:42:32.670Z,70
2016-12-19T18:42:47.146Z,70
2016-12-19T18:43:01.671Z,70
2016-12-19T18:43:16.126Z,70
2016-12-19T18:43:30.636Z,70
2016-12-19T18:43:45.276Z,70
2016-12-19T18:43:59.770Z,70
2016-12-19T18:44:14.334Z,70
2016-12-19T18:44:28.668Z,70
2016-12-19T18:44:43.137Z,70
2016-12-19T18:44:57.538Z,70
2016-12-19T18:45:11.896Z,70
2016-12-19T18:45:26.292Z,70
2016-12-19T18:45:40.688Z,70
2016-12-19T18:45:55.128Z,70
2016-12-19T18:46:09.596Z,70
2016-12-19T18:46:24.189Z,70
2016-12-19T18:46:38.579Z,70
2016-12-19T18:46:53.021Z,75
2016-12-19T18:47:07.414Z,75
2016-12-19T18:47:21.931Z,75
2016-12-19T18:47:36.428Z,75
2016-12-19T18:47:50.850Z,75
2016-12-19T18:48:05.376Z,75
2016-12-19T18:48:19.817Z,75
2016-12-19T18:48:34.173Z,75
2016-12-19T18:48:48.616Z,75
2016-12-19T18:49:02.951Z,75
2016-12-19T18:49:17.302Z,75
2016-12-19T18:49:31.789Z,80
2016-12-19T18:49:46.366Z,80
2016-12-19T18:50:00.763Z,80
2016-12-19T18:50:15.160Z,80
2016-12-19T18:50:29.591Z,80
2016-12-19T18:50:43.948Z,80
2016-12-19T18:50:58.373Z,80
2016-12-19T18:51:12.816Z,85
2016-12-19T18:51:27.287Z,85
2016-12-19T18:51:41.804Z,85
2016-12-19T18:51:56.272Z,85
2016-12-19T18:52:10.709Z,85
2016-12-19T18:52:25.090Z,85
2016-12-19T18:52:39.672Z,90
2016-12-19T18:52:54.625Z,90
2016-12-19T18:53:09.624Z,90
2016-12-19T18:53:24.711Z,90
2016-12-19T18:53:39.095Z,90
2016-12-19T18:53:53.657Z,95
2016-12-19T18:54:08.131Z,95
2016-12-19T18:54:22.551Z,95
2016-12-19T18:54:37.005Z,95
2016-12-19T18:54:51.656Z,95
2016-12-19T18:55:06.245Z,95
2016-12-19T18:55:21.000Z,95
2016-12-19T18:55:35.562Z,95
2016-12-19T18:55:50.094Z,95
2016-12-19T18:56:04.665Z,95
2016-12-19T18:56:19.107Z,100
2016-12-19T18:56:33.488Z,100
2016-12-19T18:56:47.954Z,100
2016-12-19T18:57:02.512Z,100
2016-12-19T18:57:16.968Z,100
2016-12-19T18:57:31.382Z,105
2016-12-19T18:57:45.802Z,105
2016-12-19T18:58:00.263Z,105
2016-12-19T18:58:14.674Z,110
2016-12-19T18:58:29.095Z,110
2016-12-19T18:58:43.559Z,110
2016-12-19T18:58:57.982Z,115
2016-12-19T18:59:12.453Z,115
2016-12-19T18:59:26.949Z,115
2016-12-19T18:59:41.319Z,115
2016-12-19T18:59:55.713Z,120
2016-12-19T19:00:10.101Z,120
2016-12-19T19:00:24.450Z,120
2016-12-19T19:00:38.890Z,120
2016-12-19T19:00:53.289Z,125
2016-12-19T19:01:07.741Z,125
2016-12-19T19:01:22.076Z,125
2016-12-19T19:01:36.464Z,125
2016-12-19T19:01:51.077Z,125
2016-12-19T19:02:05.591Z,125
2016-12-19T19:02:20.033Z,125
2016-12-19T19:02:34.456Z,125
2016-12-19T19:02:48.890Z,125
2016-12-19T19:03:03.287Z,125
2016-12-19T19:03:17.743Z,125
2016-12-19T19:03:32.167Z,125
2016-12-19T19:03:46.661Z,125
2016-12-19T19:04:01.071Z,125
2016-12-19T19:04:15.421Z,125
2016-12-19T19:04:29.749Z,125
2016-12-19T19:04:44.151Z,125
2016-12-19T19:04:58.619Z,125
2016-12-19T19:05:13.076Z,125
2016-12-19T19:05:27.656Z,125
2016-12-19T19:05:42.222Z,125
2016-12-19T19:05:56.783Z,125
2016-12-19T19:06:11.248Z,125
2016-12-19T19:06:25.634Z,125
2016-12-19T19:06:40.094Z,125
2016-12-19T19:06:54.534Z,130
2016-12-19T19:07:08.943Z,130
2016-12-19T19:07:23.349Z,130
2016-12-19T19:07:37.720Z,130
2016-12-19T19:07:52.144Z,130
2016-12-19T19:08:06.527Z,135
2016-12-19T19:08:20.985Z,135
2016-12-19T19:08:35.397Z,135
2016-12-19T19:08:49.814Z,135
2016-12-19T19:09:04.297Z,135
2016-12-19T19:09:18.897Z,135
2016-12-19T19:09:33.376Z,140
2016-12-19T19:09:47.987Z,140
2016-12-19T19:10:02.428Z,140
2016-12-19T19:10:16.864Z,140
2016-12-19T19:10:31.302Z,140
2016-12-19T19:10:45.758Z,140
2016-12-19T19:11:00.112Z,145
2016-12-19T19:11:14.587Z,145
2016-12-19T19:11:29.047Z,145
2016-12-19T19:11:43.446Z,145
2016-12-19T19:11:57.874Z,145
2016-12-19T19:12:12.454Z,145
2016-12-19T19:12:26.926Z,150
2016-12-19T19:12:41.412Z,150
2016-12-19T19:12:55.885Z,150
2016-12-19T19:13:10.255Z,150
2016-12-19T19:13:24.756Z,150
2016-12-19T19:13:39.164Z,150
2016-12-19T19:13:53.595Z,155
2016-12-19T19:14:08.003Z,155
2016-12-19T19:14:22.504Z,155
2016-12-19T19:14:37.106Z,155
2016-12-19T19:14:51.547Z,155
2016-12-19T19:15:05.911Z,155
2016-12-19T19:15:20.338Z,155
2016-12-19T19:15:34.768Z,155
2016-12-19T19:15:49.135Z,155
2016-12-19T19:16:03.681Z,160
2016-12-19T19:16:18.185Z,160
2016-12-19T19:16:32.682Z,160
2016-12-19T19:16:47.348Z,160
2016-12-19T19:17:01.702Z,160
2016-12-19T19:17:16.099Z,170
2016-12-19T19:17:30.584Z,165
2016-12-19T19:17:44.939Z,165
2016-12-19T19:17:59.397Z,170
2016-12-19T19:18:13.916Z,170
2016-12-19T19:18:28.367Z,170
2016-12-19T19:18:42.869Z,170
2016-12-19T19:18:57.376Z,175
2016-12-19T19:19:11.875Z,170
2016-12-19T19:19:26.492Z,180
2016-12-19T19:19:41.003Z,175
2016-12-19T19:19:55.407Z,175
2016-12-19T19:20:09.914Z,175
2016-12-19T19:20:24.317Z,175
2016-12-19T19:20:38.779Z,180
2016-12-19T19:20:53.287Z,180
2016-12-19T19:21:07.799Z,180
2016-12-19T19:21:22.266Z,180
2016-12-19T19:21:36.668Z,180
2016-12-19T19:21:51.084Z,180
2016-12-19T19:22:05.484Z,180
2016-12-19T19:22:19.867Z,185
2016-12-19T19:22:34.233Z,185
2016-12-19T19:22:48.717Z,185
2016-12-19T19:23:03.169Z,185
2016-12-19T19:23:17.730Z,185
2016-12-19T19:23:32.254Z,185
2016-12-19T19:23:46.795Z,185
2016-12-19T19:24:01.263Z,190
2016-12-19T19:24:16.020Z,185
2016-12-19T19:24:30.354Z,185
2016-12-19T19:24:44.815Z,185
2016-12-19T19:24:59.381Z,185
2016-12-19T19:25:13.913Z,185
2016-12-19T19:25:28.385Z,185
2016-12-19T19:25:42.873Z,185
2016-12-19T19:25:57.298Z,185
2016-12-19T19:26:11.796Z,185
2016-12-19T19:26:26.329Z,185
2016-12-19T19:26:41.052Z,185
2016-12-19T19:26:55.630Z,185
2016-12-19T19:27:10.049Z,185
2016-12-19T19:27:24.491Z,185
2016-12-19T19:27:39.089Z,185
2016-12-19T19:27:53.539Z,185
2016-12-19T19:28:07.968Z,185
2016-12-19T19:28:22.528Z,185
2016-12-19T19:28:37.031Z,190
2016-12-19T19:28:51.550Z,190
2016-12-19T19:29:06.114Z,190
2016-12-19T19:29:20.576Z,195
2016-12-19T19:29:34.969Z,195
2016-12-19T19:29:49.372Z,195
2016-12-19T19:30:03.896Z,200
2016-12-19T19:30:18.291Z,200
2016-12-19T19:30:32.864Z,205
2016-12-19T19:30:47.335Z,210
2016-12-19T19:31:01.881Z,210
2016-12-19T19:31:16.392Z,210
2016-12-19T19:31:30.902Z,210
2016-12-19T19:31:45.430Z,215
2016-12-19T19:31:59.894Z,215
2016-12-19T19:32:14.235Z,225
2016-12-19T19:32:28.641Z,220
2016-12-19T19:32:43.066Z,220
2016-12-19T19:32:57.464Z,220
2016-12-19T19:33:11.945Z,220
2016-12-19T19:33:26.463Z,220
2016-12-19T19:33:41.066Z,220
2016-12-19T19:33:55.665Z,220
2016-12-19T19:34:10.300Z,220
2016-12-19T19:34:24.724Z,220
2016-12-19T19:34:39.323Z,220
2016-12-19T19:34:53.929Z,220
2016-12-19T19:35:08.334Z,220
2016-12-19T19:35:22.917Z,215
2016-12-19T19:35:37.463Z,215
2016-12-19T19:35:52.040Z,210
2016-12-19T19:36:06.518Z,210
2016-12-19T19:36:21.027Z,205
2016-12-19T19:36:35.720Z,205
2016-12-19T19:36:50.136Z,205
2016-12-19T19:37:04.589Z,200
2016-12-19T19:37:19.081Z,200
2016-12-19T19:37:33.701Z,195
2016-12-19T19:37:48.293Z,190
2016-12-19T19:38:02.987Z,185
2016-12-19T19:38:17.456Z,180
2016-12-19T19:38:31.974Z,175
2016-12-19T19:38:46.616Z,170
2016-12-19T19:39:01.201Z,170
2016-12-19T19:39:15.779Z,165
2016-12-19T19:39:30.163Z,160
2016-12-19T19:39:44.735Z,160
2016-12-19T19:39:59.217Z,155
2016-12-19T19:40:13.803Z,150
2016-12-19T19:40:28.317Z,150
2016-12-19T19:40:42.781Z,145
2016-12-19T19:40:57.265Z,145
2016-12-19T19:41:11.853Z,140
2016-12-19T19:41:26.462Z,140
2016-12-19T19:41:41.098Z,135
2016-12-19T19:41:55.571Z,130
2016-12-19T19:42:10.096Z,130
2016-12-19T19:42:24.487Z,130
2016-12-19T19:42:39.002Z,130
2016-12-19T19:42:53.546Z,125
2016-12-19T19:43:08.235Z,120
2016-12-19T19:43:22.712Z,115
2016-12-19T19:43:37.190Z,115
2016-12-19T19:43:51.665Z,110
2016-12-19T19:44:06.079Z,110
2016-12-19T19:44:20.954Z,105
2016-12-19T19:44:35.421Z,100
2016-12-19T19:44:49.931Z,100
2016-12-19T19:45:04.659Z,95
2016-12-19T19:45:19.188Z,90
2016-12-19T19:45:34.043Z,90
2016-12-19T19:45:48.464Z,85
2016-12-19T19:46:03.037Z,80
2016-12-19T19:46:17.559Z,80
2016-12-19T19:46:32.255Z,75
2016-12-19T19:46:46.834Z,70
2016-12-19T19:47:01.800Z,70
2016-12-19T19:47:16.584Z,70
2016-12-19T19:47:31.074Z,70
2016-12-19T19:47:45.664Z,65
2016-12-19T19:48:00.127Z,65
2016-12-19T19:48:14.565Z,65
2016-12-19T19:48:29.359Z,60
2016-12-19T19:48:43.970Z,60
2016-12-19T19:48:58.547Z,55
2016-12-19T19:49:12.971Z,55
2016-12-19T19:49:27.770Z,55
2016-12-19T19:49:42.909Z,55
2016-12-19T19:49:57.463Z,50
2016-12-19T19:50:12.027Z,50
2016-12-19T19:50:26.435Z,50
2016-12-19T19:50:41.002Z,50
2016-12-19T19:50:55.678Z,45
2016-12-19T19:51:10.214Z,45
2016-12-19T19:51:24.905Z,45
2016-12-19T19:51:39.698Z,45
2016-12-19T19:51:54.253Z,40
2016-12-19T19:52:08.777Z,40
2016-12-19T19:52:23.544Z,40
2016-12-19T19:52:38.110Z,40
2016-12-19T19:52:52.541Z,40
2016-12-19T19:53:06.930Z,35
2016-12-19T19:53:21.770Z,35
2016-12-19T19:53:36.476Z,35
2016-12-19T19:53:51.013Z,35
2016-12-19T19:54:05.521Z,35
2016-12-19T19:54:20.085Z,35
2016-12-19T19:54:34.469Z,30
2016-12-19T19:54:49.160Z,30
2016-12-19T19:55:03.829Z,30
2016-12-19T19:55:18.428Z,30
2016-12-19T19:55:32.882Z,30
2016-12-19T19:55:47.396Z,30
2016-12-19T19:56:02.128Z,30
2016-12-19T19:56:16.810Z,30
2016-12-19T19:56:31.374Z,30
2016-12-19T19:56:45.970Z,30
2016-12-19T19:57:00.689Z,30
2016-12-19T19:57:15.103Z,30
2016-12-19T19:57:29.735Z,30
2016-12-19T19:57:44.417Z,30
2016-12-19T19:57:59.008Z,30
2016-12-19T19:58:13.530Z,25
2016-12-19T19:58:28.195Z,25
2016-12-19T19:58:42.692Z,25
2016-12-19T19:58:57.164Z,25
2016-12-19T19:59:11.705Z,25
2016-12-19T19:59:26.158Z,25
2016-12-19T19:59:40.556Z,25
2016-12-19T19:59:55.175Z,25
2016-12-19T20:00:09.757Z,25
2016-12-19T20:00:24.168Z,25
2016-12-19T20:00:38.684Z,25
2016-12-19T20:00:53.293Z,25
2016-12-19T20:01:07.876Z,25
2016-12-19T20:01:22.562Z,25
2016-12-19T20:01:37.078Z,25
2016-12-19T20:01:51.539Z,25
2016-12-19T20:02:06.116Z,25
2016-12-19T20:02:20.530Z,25
2016-12-19T20:02:35.136Z,25
2016-12-19T20:02:49.652Z,25
2016-12-19T20:03:04.208Z,25
2016-12-19T20:03:18.952Z,30
2016-12-19T20:03:33.351Z,30
2016-12-19T20:03:47.851Z,30
2016-12-19T20:04:02.557Z,30
2016-12-19T20:04:17.055Z,30
2016-12-19T20:04:31.576Z,30
2016-12-19T20:04:46.018Z,30
2016-12-19T20:05:00.415Z,30
2016-12-19T20:05:14.964Z,30
2016-12-19T20:05:29.425Z,30
2016-12-19T20:05:43.922Z,30
2016-12-19T20:05:58.417Z,30
2016-12-19T20:06:12.867Z,30
2016-12-19T20:06:27.300Z,30
2016-12-19T20:06:41.709Z,30
2016-12-19T20:06:56.189Z,30
2016-12-19T20:07:10.885Z,30
2016-12-19T20:07:25.541Z,30
2016-12-19T20:07:40.799Z,30
2016-12-19T20:07:55.285Z,30
2016-12-19T20:08:09.641Z,30
2016-12-19T20:08:24.119Z,30
2016-12-19T20:08:38.778Z,30
2016-12-19T20:08:53.316Z,30
2016-12-19T20:09:08.014Z,30
2016-12-19T20:09:22.600Z,30
2016-12-19T20:09:37.214Z,30
2016-12-19T20:09:51.752Z,30
2016-12-19T20:10:06.243Z,30
2016-12-19T20:10:20.766Z,30
2016-12-19T20:10:35.445Z,30
2016-12-19T20:10:49.897Z,30
2016-12-19T20:11:04.449Z,30
2016-12-19T20:11:19.159Z,30
2016-12-19T20:11:33.611Z,30
2016-12-19T20:11:48.276Z,30
2016-12-19T20:12:02.788Z,30
2016-12-19T20:12:17.265Z,30
2016-12-19T20:12:31.851Z,30
2016-12-19T20:12:46.353Z,30
2016-12-19T20:13:00.943Z,30
2016-12-19T20:13:15.718Z,30
2016-12-19T20:13:30.214Z,30
2016-12-19T20:13:44.740Z,30
2016-12-19T20:13:59.392Z,30
2016-12-19T20:14:13.920Z,30
2016-12-19T20:14:28.459Z,30
2016-12-19T20:14:42.972Z,30
2016-12-19T20:14:57.570Z,30
2016-12-19T20:15:12.049Z,30
2016-12-19T20:15:26.585Z,30
2016-12-19T20:15:41.080Z,30
2016-12-19T20:15:55.782Z,30
2016-12-19T20:16:10.570Z,30
2016-12-19T20:16:25.369Z,30
2016-12-19T20:16:40.019Z,30
2016-12-19T20:16:54.485Z,30
2016-12-19T20:17:09.676Z,30
2016-12-19T20:17:24.174Z,30
2016-12-19T20:17:38.732Z,35
2016-12-19T20:17:53.082Z,35
2016-12-19T20:18:07.655Z,35
2016-12-19T20:18:22.105Z,35
2016-12-19T20:18:36.489Z,35
2016-12-19T20:18:51.044Z,35
2016-12-19T20:19:05.655Z,35
2016-12-19T20:19:20.133Z,35
2016-12-19T20:19:34.866Z,35
2016-12-19T20:19:49.438Z,35
2016-12-19T20:20:04.099Z,35
2016-12-19T20:20:18.647Z,35
2016-12-19T20:20:33.076Z,35
2016-12-19T20:20:47.675Z,35
2016-12-19T20:21:02.292Z,35
2016-12-19T20:21:16.831Z,35
2016-12-19T20:21:31.423Z,35
2016-12-19T20:21:45.919Z,35
2016-12-19T20:22:00.602Z,35
2016-12-19T20:22:15.247Z,35
2016-12-19T20:22:29.651Z,35
2016-12-19T20:22:44.244Z,35
2016-12-19T20:22:58.877Z,35
2016-12-19T20:23:13.465Z,35
2016-12-19T20:23:28.137Z,35
2016-12-19T20:23:42.634Z,35
2016-12-19T20:23:57.146Z,35
2016-12-19T20:24:11.956Z,40
2016-12-19T20:24:26.593Z,40
2016-12-19T20:24:41.427Z,40
2016-12-19T20:24:56.152Z,40
2016-12-19T20:25:10.709Z,40
2016-12-19T20:25:25.621Z,40
2016-12-19T20:25:40.151Z,40
2016-12-19T20:25:54.873Z,40
2016-12-19T20:26:09.395Z,40
2016-12-19T20:26:23.758Z,40
2016-12-19T20:26:38.324Z,40
2016-12-19T20:26:52.971Z,40
2016-12-19T20:27:07.557Z,40
2016-12-19T20:27:22.279Z,40
2016-12-19T20:27:36.795Z,40
2016-12-19T20:27:51.397Z,40
2016-12-19T20:28:06.101Z,40
2016-12-19T20:28:20.642Z,40
2016-12-19T20:28:35.228Z,40
2016-12-19T20:28:49.619Z,40
2016-12-19T20:29:04.291Z,40
2016-12-19T20:29:18.750Z,40
2016-12-19T20:29:33.171Z,40
2016-12-19T20:29:47.836Z,40
2016-12-19T20:30:02.341Z,40
2016-12-19T20:30:16.752Z,40
2016-12-19T20:30:31.290Z,40
2016-12-19T20:30:45.806Z,40
2016-12-19T20:31:00.427Z,40
2016-12-19T20:31:14.944Z,40
2016-12-19T20:31:29.445Z,40
2016-12-19T20:31:43.921Z,40
2016-12-19T20:31:58.408Z,40
2016-12-19T20:32:13.264Z,40
2016-12-19T20:32:27.633Z,40
2016-12-19T20:32:42.064Z,40
2016-12-19T20:32:56.615Z,40
2016-12-19T20:33:11.007Z,40
2016-12-19T20:33:25.551Z,40
2016-12-19T20:33:40.166Z,40
2016-12-19T20:33:54.635Z,40
2016-12-19T20:34:09.175Z,40
2016-12-19T20:34:23.774Z,40
2016-12-19T20:34:38.402Z,40
2016-12-19T20:34:52.952Z,40
2016-12-19T20:35:07.476Z,40
2016-12-19T20:35:21.962Z,40
2016-12-19T20:35:36.624Z,40
2016-12-19T20:35:51.422Z,40
2016-12-19T20:36:05.956Z,40
2016-12-19T20:36:20.487Z,40
2016-12-19T20:36:34.966Z,40
2016-12-19T20:36:49.287Z,40
2016-12-19T20:37:03.733Z,40
2016-12-19T20:37:18.161Z,40
2016-12-19T20:37:32.666Z,40
2016-12-19T20:37:47.252Z,40
2016-12-19T20:38:01.825Z,40
2016-12-19T20:38:16.860Z,40
2016-12-19T20:38:31.565Z,40
2016-12-19T20:38:46.057Z,40
2016-12-19T20:39:00.688Z,40
2016-12-19T20:39:15.219Z,40
2016-12-19T20:39:29.824Z,40
2016-12-19T20:39:44.617Z,40
2016-12-19T20:39:59.158Z,40
2016-12-19T20:40:13.824Z,40
2016-12-19T20:40:28.544Z,40
2016-12-19T20:40:42.955Z,40
2016-12-19T20:40:57.596Z,40
2016-12-19T20:41:12.119Z,40
2016-12-19T20:41:26.586Z,40
2016-12-19T20:41:41.081Z,40
2016-12-19T20:41:55.745Z,40
2016-12-19T20:42:10.668Z,40
2016-12-19T20:42:25.155Z,40
2016-12-19T20:42:39.733Z,40
2016-12-19T20:42:54.221Z,40
2016-12-19T20:43:08.977Z,40
2016-12-19T20:43:23.781Z,40
2016-12-19T20:43:38.278Z,40
2016-12-19T20:43:53.003Z,40
2016-12-19T20:44:07.471Z,40
2016-12-19T20:44:22.072Z,40
2016-12-19T20:44:36.578Z,40
2016-12-19T20:44:51.106Z,40
2016-12-19T20:45:05.724Z,40
2016-12-19T20:45:20.204Z,40
2016-12-19T20:45:34.732Z,40
2016-12-19T20:45:49.374Z,35
2016-12-19T20:46:03.846Z,35
2016-12-19T20:46:18.448Z,35
2016-12-19T20:46:32.989Z,35